Time;durP1;ratioP1;P1;durP2;ratioP2;P2;SDS_P1;SDS_P2;PMS_P1;PMS_P2;Temp;Humidity;BMP_temperature;BMP_pressure;BME280_temperature;BME280_humidity;BME280_pressure;Samples;Min_cycle;Max_cycle;Signal;HPM_P1;HPM_P2
2024/02/07 00:01:25;;;;;;;9.68;2.10;;;;;;;11.89;100.00;99006.31;5216698;28;20033;-75
2024/02/07 00:03:55;;;;;;;6.20;2.00;;;;;;;11.92;100.00;99007.91;5215132;28;20029;-76
2024/02/07 00:06:26;;;;;;;9.90;1.90;;;;;;;11.89;100.00;99010.69;5216312;28;20040;-75
2024/02/07 00:08:57;;;;;;;9.95;2.25;;;;;;;11.93;100.00;99001.72;5209395;28;20471;-75
2024/02/07 00:11:27;;;;;;;8.05;2.10;;;;;;;11.91;100.00;99003.56;5213425;28;20025;-75
2024/02/07 00:13:58;;;;;;;9.38;2.33;;;;;;;11.91;100.00;98977.41;5221219;28;20403;-76
2024/02/07 00:16:28;;;;;;;6.88;2.30;;;;;;;12.00;99.68;98993.38;5204313;28;20107;-75
2024/02/07 00:18:59;;;;;;;9.55;2.22;;;;;;;11.92;100.00;98990.41;5217337;28;20029;-76
2024/02/07 00:21:29;;;;;;;6.15;2.20;;;;;;;11.93;100.00;98992.06;5192677;28;20045;-75
2024/02/07 00:23:59;;;;;;;9.43;2.30;;;;;;;11.91;100.00;98978.25;5218374;28;20548;-76
2024/02/07 00:26:30;;;;;;;9.88;2.15;;;;;;;12.06;100.00;98985.09;5222142;28;20037;-76
2024/02/07 00:29:00;;;;;;;6.72;2.35;;;;;;;12.01;100.00;98966.25;5218735;28;20021;-76
2024/02/07 00:31:30;;;;;;;6.63;2.13;;;;;;;11.95;100.00;98982.34;5221792;28;20460;-75
2024/02/07 00:34:00;;;;;;;7.07;2.30;;;;;;;11.96;100.00;98973.53;5201088;28;20031;-76
2024/02/07 00:36:31;;;;;;;9.38;1.98;;;;;;;11.92;100.00;98981.72;5209316;28;20156;-76
2024/02/07 00:39:01;;;;;;;6.40;2.00;;;;;;;11.87;100.00;98973.31;5218277;28;20501;-75
2024/02/07 00:41:32;;;;;;;6.40;1.85;;;;;;;11.92;100.00;98979.94;5217367;28;20040;-75
2024/02/07 00:44:02;;;;;;;10.57;2.00;;;;;;;11.82;100.00;98968.38;5216489;28;20080;-76
2024/02/07 00:46:32;;;;;;;8.55;2.00;;;;;;;11.80;100.00;98975.50;5221333;28;20128;-75
2024/02/07 00:49:03;;;;;;;8.93;2.22;;;;;;;11.80;100.00;98970.25;5219399;28;20228;-76
2024/02/07 00:51:33;;;;;;;9.50;2.00;;;;;;;11.77;100.00;98967.84;5192228;28;20025;-75
2024/02/07 00:54:04;;;;;;;6.57;1.90;;;;;;;11.83;100.00;98967.47;5219360;28;20138;-76
2024/02/07 00:56:35;;;;;;;10.45;2.83;;;;;;;11.85;100.00;98968.19;5215789;28;20517;-75
2024/02/07 00:59:05;;;;;;;11.63;2.40;;;;;;;11.78;100.00;98961.69;5196882;28;20017;-75
2024/02/07 01:01:35;;;;;;;7.22;1.88;;;;;;;11.73;100.00;98994.31;5210645;28;20029;-76
2024/02/07 01:04:05;;;;;;;7.18;1.67;;;;;;;11.65;100.00;98992.19;5209845;28;20021;-75
2024/02/07 01:06:36;;;;;;;4.20;1.05;;;;;;;11.12;100.00;99031.34;5201250;28;20033;-76
2024/02/07 01:09:08;;;;;;;3.92;0.60;;;;;;;10.42;100.00;99024.47;5218017;28;20405;-75
2024/02/07 01:11:38;;;;;;;1.88;0.40;;;;;;;9.83;100.00;99054.00;5224552;28;20033;-76
2024/02/07 01:14:09;;;;;;;0.88;0.30;;;;;;;9.56;100.00;99008.63;5203246;28;20044;-76
2024/02/07 01:16:40;;;;;;;0.32;0.10;;;;;;;9.48;100.00;99049.09;5222476;28;20072;-76
2024/02/07 01:19:10;;;;;;;1.63;0.20;;;;;;;9.26;100.00;99061.59;5223544;28;20028;-76
2024/02/07 01:21:41;;;;;;;1.10;0.40;;;;;;;9.16;100.00;99039.59;5216637;28;20177;-74
2024/02/07 01:24:12;;;;;;;0.35;0.20;;;;;;;9.06;100.00;99051.44;5204057;28;20029;-76
2024/02/07 01:26:44;;;;;;;0.57;0.20;;;;;;;8.98;100.00;99048.41;5223343;28;20035;-76
2024/02/07 01:29:14;;;;;;;1.77;0.20;;;;;;;8.90;100.00;99052.34;5210882;28;20782;-76
2024/02/07 01:31:46;;;;;;;0.25;0.20;;;;;;;8.69;100.00;99064.72;5224806;28;20043;-76
2024/02/07 01:34:16;;;;;;;0.30;0.10;;;;;;;8.57;100.00;99073.16;5223253;28;20201;-76
2024/02/07 01:36:47;;;;;;;0.80;0.20;;;;;;;8.41;100.00;99072.25;5220580;28;20094;-76
2024/02/07 01:39:18;;;;;;;0.98;0.30;;;;;;;8.32;100.00;99082.28;5221195;28;20071;-76
2024/02/07 01:41:57;;;;;;;0.82;0.20;;;;;;;8.20;100.00;99090.72;5214981;28;20033;-76
2024/02/07 01:44:29;;;;;;;0.65;0.20;;;;;;;8.09;100.00;99080.81;5207428;28;20107;-76
2024/02/07 01:47:13;;;;;;;1.77;0.30;;;;;;;8.03;100.00;99091.50;5223062;28;20397;-76
2024/02/07 01:49:51;;;;;;;0.35;0.22;;;;;;;8.09;100.00;99100.78;5205618;28;20020;-76
2024/02/07 01:52:23;;;;;;;1.40;0.40;;;;;;;7.92;100.00;99093.81;5219175;28;20033;-76
2024/02/07 01:54:53;;;;;;;1.70;0.77;;;;;;;7.97;100.00;99106.56;5212263;28;20499;-76
2024/02/07 01:57:24;;;;;;;1.33;0.40;;;;;;;8.00;100.00;99103.81;5221836;28;20221;-76
2024/02/07 01:59:54;;;;;;;3.00;0.32;;;;;;;7.67;100.00;99103.69;5225608;28;20574;-76
2024/02/07 02:02:25;;;;;;;1.25;0.40;;;;;;;7.71;100.00;99100.00;5223970;28;20099;-76
2024/02/07 02:04:56;;;;;;;0.85;0.30;;;;;;;7.45;100.00;99109.97;5218431;28;20195;-75
2024/02/07 02:07:26;;;;;;;3.63;0.40;;;;;;;7.38;100.00;99106.78;5201376;28;20389;-74
2024/02/07 02:09:57;;;;;;;1.17;0.38;;;;;;;7.29;100.00;99117.63;5215390;28;20021;-75
2024/02/07 02:12:29;;;;;;;3.78;0.47;;;;;;;7.27;100.00;99112.56;5226762;28;20386;-75
2024/02/07 02:14:59;;;;;;;3.28;0.57;;;;;;;7.22;100.00;99114.53;5223389;28;20031;-75
2024/02/07 02:17:30;;;;;;;3.28;0.40;;;;;;;7.25;100.00;99115.22;5222078;28;20434;-75
2024/02/07 02:20:04;;;;;;;2.38;0.40;;;;;;;7.27;100.00;99115.19;5202840;28;20017;-75
2024/02/07 02:23:12;;;;;;;4.45;0.50;;;;;;;7.16;100.00;99107.00;5176638;28;20113;-76
2024/02/07 02:26:26;;;;;;;4.10;0.57;;;;;;;7.21;100.00;99120.63;5200457;28;20056;-74
2024/02/07 02:29:07;;;;;;;3.50;0.50;;;;;;;7.17;100.00;99117.34;5207633;28;20413;-76
2024/02/07 02:31:38;;;;;;;2.13;0.43;;;;;;;7.18;100.00;99128.56;5220037;28;20701;-75
2024/02/07 02:34:10;;;;;;;2.13;0.68;;;;;;;7.19;100.00;99128.50;5219230;28;20402;-75
2024/02/07 02:36:40;;;;;;;4.07;0.40;;;;;;;7.08;100.00;99122.94;5214410;28;20665;-76
2024/02/07 02:39:11;;;;;;;4.32;0.47;;;;;;;6.91;100.00;99135.00;5203464;28;20021;-76
2024/02/07 02:41:41;;;;;;;3.88;0.50;;;;;;;6.92;100.00;99132.31;5223756;28;20436;-75
2024/02/07 02:44:12;;;;;;;4.18;0.40;;;;;;;6.97;100.00;99137.31;5225339;28;20029;-75
2024/02/07 02:46:42;;;;;;;4.07;0.47;;;;;;;6.95;100.00;99128.75;5222744;28;20029;-75
2024/02/07 02:49:12;;;;;;;3.80;0.57;;;;;;;7.12;100.00;99140.06;5223155;28;20032;-74
2024/02/07 02:51:43;;;;;;;2.08;0.45;;;;;;;7.20;100.00;99137.97;5217892;28;20155;-75
2024/02/07 02:54:14;;;;;;;3.33;0.47;;;;;;;7.06;100.00;99137.75;5210830;28;20223;-75
2024/02/07 02:56:46;;;;;;;2.22;0.40;;;;;;;6.79;100.00;99143.31;5226716;28;20028;-75
2024/02/07 02:59:18;;;;;;;4.15;0.50;;;;;;;6.91;100.00;99142.78;5229556;28;20052;-76
2024/02/07 03:01:51;;;;;;;4.38;0.65;;;;;;;6.77;100.00;99155.53;5220325;28;20028;-75
2024/02/07 03:04:22;;;;;;;2.35;0.50;;;;;;;6.76;100.00;99146.88;5223932;28;20032;-75
2024/02/07 03:07:13;;;;;;;2.20;0.60;;;;;;;6.85;100.00;99140.44;5210407;28;20017;-74
2024/02/07 03:09:49;;;;;;;2.63;0.40;;;;;;;6.83;100.00;99137.06;5224352;28;20032;-75
2024/02/07 03:12:19;;;;;;;3.17;0.43;;;;;;;6.92;100.00;99150.50;5227085;28;20086;-75
2024/02/07 03:14:49;;;;;;;1.65;0.30;;;;;;;6.93;100.00;99148.75;5227091;28;20302;-76
2024/02/07 03:17:19;;;;;;;2.47;0.47;;;;;;;7.00;100.00;99155.34;5224926;28;20029;-75
2024/02/07 03:19:50;;;;;;;2.95;0.43;;;;;;;6.88;100.00;99150.69;5224039;28;20355;-75
2024/02/07 03:22:20;;;;;;;3.58;0.50;;;;;;;6.90;100.00;99157.50;5227017;28;20029;-76
2024/02/07 03:24:55;;;;;;;3.53;0.60;;;;;;;6.76;100.00;99166.81;5213374;28;20028;-75
2024/02/07 03:27:25;;;;;;;2.08;0.70;;;;;;;6.71;100.00;99168.75;5225589;28;20021;-76
2024/02/07 03:29:56;;;;;;;2.45;0.50;;;;;;;6.70;100.00;99178.28;5226114;28;20036;-75
2024/02/07 03:32:26;;;;;;;1.75;0.30;;;;;;;6.52;100.00;99188.59;5227872;28;20087;-75
2024/02/07 03:34:57;;;;;;;1.23;0.32;;;;;;;6.40;100.00;99192.53;5204134;28;20064;-74
2024/02/07 03:37:28;;;;;;;3.03;0.43;;;;;;;6.34;100.00;99192.81;5213485;28;20466;-75
2024/02/07 03:39:58;;;;;;;3.83;0.50;;;;;;;6.09;100.00;99191.25;5226405;28;20116;-75
2024/02/07 03:42:28;;;;;;;5.13;0.75;;;;;;;6.08;100.00;99187.81;5209394;28;20032;-76
2024/02/07 03:45:03;;;;;;;3.28;0.40;;;;;;;6.16;100.00;99190.09;5227020;28;20025;-75
2024/02/07 03:47:34;;;;;;;2.97;0.40;;;;;;;6.17;100.00;99204.75;5224281;28;20024;-75
2024/02/07 03:50:05;;;;;;;3.50;0.43;;;;;;;6.11;100.00;99215.38;5224298;28;20429;-73
2024/02/07 03:52:35;;;;;;;1.48;0.40;;;;;;;5.92;100.00;99214.41;5226866;28;20115;-75
2024/02/07 03:55:07;;;;;;;2.03;0.25;;;;;;;5.62;100.00;99218.13;5223406;28;20585;-75
2024/02/07 03:57:37;;;;;;;3.97;0.60;;;;;;;5.58;100.00;99221.72;5226483;28;20370;-76
2024/02/07 04:00:09;;;;;;;1.55;0.40;;;;;;;5.68;100.00;99225.66;5223008;28;20029;-75
2024/02/07 04:02:45;;;;;;;3.08;0.40;;;;;;;5.62;100.00;99220.72;5225120;28;20061;-75
2024/02/07 04:05:18;;;;;;;2.50;0.40;;;;;;;5.44;100.00;99226.56;5223749;28;20513;-75
2024/02/07 04:07:50;;;;;;;1.15;0.35;;;;;;;5.39;100.00;99216.38;5220164;28;20055;-75
2024/02/07 04:10:23;;;;;;;1.77;0.35;;;;;;;5.32;100.00;99229.59;5225031;28;20029;-76
2024/02/07 05:17:19;;;;;;;6.38;0.77;;;;;;;5.14;100.00;99258.72;5218419;28;20029;-75
2024/02/07 05:19:51;;;;;;;3.60;0.68;;;;;;;5.08;100.00;99271.91;5209425;28;20021;-76
2024/02/07 05:22:21;;;;;;;5.38;0.60;;;;;;;5.10;100.00;99264.94;5225363;28;20024;-75
2024/02/07 05:24:52;;;;;;;4.13;0.65;;;;;;;4.98;100.00;99270.50;5229413;28;20040;-75
2024/02/07 05:27:22;;;;;;;7.38;0.70;;;;;;;5.03;100.00;99267.78;5229664;28;20456;-75
2024/02/07 05:29:54;;;;;;;5.25;0.63;;;;;;;5.01;100.00;99256.63;5228250;28;20115;-76
2024/02/07 05:32:24;;;;;;;4.22;0.73;;;;;;;5.00;100.00;99255.78;5208213;28;20543;-74
2024/02/07 05:34:54;;;;;;;1.40;0.28;;;;;;;5.01;100.00;99249.69;5206999;28;20033;-74
2024/02/07 05:37:25;;;;;;;1.38;0.25;;;;;;;5.13;100.00;99251.03;5210049;28;20025;-75
2024/02/07 05:39:56;;;;;;;2.25;0.40;;;;;;;5.21;100.00;99236.94;5224780;28;20490;-75
2024/02/07 05:42:26;;;;;;;2.13;0.40;;;;;;;5.06;100.00;99242.63;5224982;28;20067;-75
2024/02/07 05:44:56;;;;;;;5.35;0.85;;;;;;;5.12;100.00;99245.00;5224100;28;20478;-75
2024/02/07 05:47:26;;;;;;;4.70;0.50;;;;;;;5.05;100.00;99232.31;5221953;28;20029;-75
2024/02/07 05:49:58;;;;;;;4.25;0.50;;;;;;;4.87;100.00;99244.19;5224470;28;20102;-75
2024/02/07 05:52:28;;;;;;;5.75;0.43;;;;;;;4.92;100.00;99255.19;5222327;28;20032;-75
2024/02/07 05:54:58;;;;;;;5.72;0.68;;;;;;;4.73;100.00;99248.97;5224406;28;20262;-75
2024/02/07 05:57:29;;;;;;;7.82;0.65;;;;;;;4.94;100.00;99261.16;5224927;28;20052;-75
2024/02/07 06:00:08;;;;;;;3.30;0.50;;;;;;;4.96;100.00;99243.84;5225621;28;20021;-75
2024/02/07 06:02:39;;;;;;;2.53;0.50;;;;;;;5.04;100.00;99253.94;5224707;28;20777;-75
2024/02/07 06:05:11;;;;;;;4.22;0.73;;;;;;;5.12;100.00;99251.94;5224890;28;20028;-75
2024/02/07 06:07:41;;;;;;;3.53;0.60;;;;;;;5.06;100.00;99262.50;5225195;28;20071;-75
2024/02/07 06:10:12;;;;;;;4.55;0.60;;;;;;;5.16;100.00;99254.34;5225828;28;20063;-75
2024/02/07 06:12:44;;;;;;;4.03;0.55;;;;;;;5.10;100.00;99257.16;5224902;28;20038;-75
2024/02/07 06:15:15;;;;;;;6.53;0.88;;;;;;;5.12;100.00;99268.31;5203607;28;20029;-75
2024/02/07 06:17:45;;;;;;;3.60;0.50;;;;;;;5.14;100.00;99282.03;5221541;28;20032;-75
2024/02/07 06:20:16;;;;;;;2.15;0.40;;;;;;;5.08;100.00;99287.44;5223787;28;20066;-75
2024/02/07 06:22:47;;;;;;;7.90;0.40;;;;;;;5.02;100.00;99292.84;5230525;28;20032;-76
2024/02/07 06:25:18;;;;;;;3.63;0.40;;;;;;;5.16;100.00;99289.75;5223259;28;21325;-74
2024/02/07 06:27:48;;;;;;;4.03;0.55;;;;;;;5.10;100.00;99274.41;5231325;28;20119;-75
2024/02/07 06:30:18;;;;;;;7.00;0.80;;;;;;;4.95;100.00;99286.16;5230333;28;20228;-75
2024/02/07 06:32:49;;;;;;;5.43;0.50;;;;;;;5.03;100.00;99286.75;5211128;28;20049;-76
2024/02/07 06:35:19;;;;;;;5.35;0.70;;;;;;;4.93;100.00;99276.75;5211372;28;20035;-76
2024/02/07 06:37:49;;;;;;;2.10;0.30;;;;;;;4.94;100.00;99274.13;5229162;28;20040;-75
2024/02/07 06:40:19;;;;;;;4.10;0.50;;;;;;;4.99;100.00;99292.09;5224640;28;20112;-75
2024/02/07 06:42:50;;;;;;;3.80;0.70;;;;;;;4.94;100.00;99300.00;5207024;28;20025;-76
2024/02/07 06:45:20;;;;;;;3.03;0.73;;;;;;;5.00;100.00;99304.94;5222529;28;20047;-75
2024/02/07 06:47:51;;;;;;;6.78;0.60;;;;;;;5.05;100.00;99303.06;5221392;28;20028;-75
2024/02/07 06:50:22;;;;;;;2.50;0.40;;;;;;;5.07;100.00;99306.47;5227171;28;20028;-74
2024/02/07 06:52:52;;;;;;;5.70;0.70;;;;;;;5.07;100.00;99295.25;5227224;28;20028;-75
2024/02/07 06:55:23;;;;;;;4.53;0.43;;;;;;;4.98;100.00;99309.34;5224683;28;20078;-76
2024/02/07 06:57:54;;;;;;;3.28;0.60;;;;;;;5.04;100.00;99306.56;5210572;28;20561;-75
2024/02/07 07:00:24;;;;;;;2.85;0.40;;;;;;;4.98;100.00;99311.09;5221765;28;20025;-75
2024/02/07 07:02:55;;;;;;;5.32;0.70;;;;;;;5.12;100.00;99314.06;5224452;28;20080;-75
2024/02/07 07:05:25;;;;;;;2.75;0.70;;;;;;;5.02;100.00;99318.72;5216725;28;20208;-75
2024/02/07 07:07:56;;;;;;;4.22;0.50;;;;;;;5.07;100.00;99318.53;5218430;28;20486;-74
2024/02/07 07:10:26;;;;;;;3.70;0.57;;;;;;;5.00;100.00;99322.25;5214374;28;20013;-75
2024/02/07 07:12:57;;;;;;;3.20;0.43;;;;;;;4.95;100.00;99322.38;5223156;28;20025;-75
2024/02/07 07:15:27;;;;;;;3.53;0.50;;;;;;;5.11;100.00;99328.75;5212974;28;20102;-75
2024/02/07 07:17:57;;;;;;;5.05;0.80;;;;;;;5.09;100.00;99325.38;5223603;28;20112;-75
2024/02/07 07:20:30;;;;;;;8.35;0.65;;;;;;;5.15;100.00;99327.75;5220989;28;20047;-75
2024/02/07 07:23:02;;;;;;;0.90;0.20;;;;;;;5.23;100.00;99323.16;5224432;28;20025;-74
2024/02/07 07:25:32;;;;;;;3.40;0.47;;;;;;;5.17;100.00;99333.72;5217021;28;20508;-75
2024/02/07 07:28:03;;;;;;;5.25;0.93;;;;;;;5.22;100.00;99331.84;5228105;28;20033;-75
2024/02/07 07:30:33;;;;;;;6.20;0.60;;;;;;;5.26;100.00;99341.19;5218764;28;20025;-75
2024/02/07 07:33:04;;;;;;;3.92;0.50;;;;;;;5.31;100.00;99348.81;5222197;28;20409;-74
2024/02/07 07:35:34;;;;;;;6.90;0.73;;;;;;;5.24;100.00;99355.06;5203476;28;20044;-75
2024/02/07 07:38:04;;;;;;;2.67;0.60;;;;;;;5.34;100.00;99359.88;5225047;28;20025;-73
2024/02/07 07:40:38;;;;;;;6.57;0.98;;;;;;;5.31;100.00;99366.94;5221650;28;20028;-75
2024/02/07 07:43:08;;;;;;;6.90;1.00;;;;;;;5.47;100.00;99363.75;5222324;28;20398;-75
2024/02/07 07:45:38;;;;;;;4.93;0.75;;;;;;;5.51;100.00;99373.09;5203229;28;20025;-73
2024/02/07 07:48:09;;;;;;;8.20;1.10;;;;;;;5.32;100.00;99374.63;5222241;28;20024;-75
2024/02/07 07:50:39;;;;;;;6.82;0.70;;;;;;;5.45;100.00;99374.19;5221847;28;20143;-74
2024/02/07 07:53:09;;;;;;;7.93;1.00;;;;;;;5.45;100.00;99376.78;5219881;28;20381;-75
2024/02/07 07:55:40;;;;;;;5.53;0.90;;;;;;;5.48;100.00;99381.00;5220863;28;20291;-75
2024/02/07 07:58:10;;;;;;;5.70;0.60;;;;;;;5.56;100.00;99390.19;5210408;28;20121;-75
2024/02/07 08:00:40;;;;;;;3.55;0.55;;;;;;;5.53;100.00;99392.03;5219245;28;20244;-75
2024/02/07 08:03:11;;;;;;;3.28;0.65;;;;;;;5.48;100.00;99392.22;5206707;28;20123;-76
2024/02/07 08:05:42;;;;;;;5.18;1.00;;;;;;;5.40;100.00;99399.38;5215568;28;20111;-75
2024/02/07 08:08:12;;;;;;;7.85;0.90;;;;;;;5.32;100.00;99394.53;5203904;28;20752;-75
2024/02/07 08:10:44;;;;;;;5.13;0.77;;;;;;;5.32;100.00;99403.13;5228695;28;20035;-75
2024/02/07 08:13:14;;;;;;;5.10;0.80;;;;;;;5.20;100.00;99406.13;5205285;28;20144;-75
2024/02/07 08:15:46;;;;;;;3.35;0.57;;;;;;;5.23;100.00;99416.38;5225560;28;20112;-75
2024/02/07 08:18:16;;;;;;;10.23;1.02;;;;;;;5.32;100.00;99416.06;5226805;28;20793;-75
2024/02/07 08:20:46;;;;;;;6.07;0.90;;;;;;;5.29;100.00;99425.72;5208759;28;20025;-75
2024/02/07 08:23:17;;;;;;;4.95;1.00;;;;;;;5.24;100.00;99427.56;5228380;28;20517;-75
2024/02/07 08:25:47;;;;;;;3.75;0.70;;;;;;;5.40;100.00;99429.63;5228856;28;20103;-75
2024/02/07 08:28:17;;;;;;;3.13;0.95;;;;;;;5.40;100.00;99419.28;5205376;28;20421;-75
2024/02/07 08:30:48;;;;;;;3.72;0.95;;;;;;;5.33;100.00;99422.94;5210608;28;20070;-75
2024/02/07 08:33:18;;;;;;;3.58;0.90;;;;;;;5.36;100.00;99417.66;5227115;28;20047;-75
2024/02/07 08:35:48;;;;;;;6.25;1.08;;;;;;;5.35;100.00;99420.31;5206322;28;20238;-75
2024/02/07 08:38:19;;;;;;;3.65;0.70;;;;;;;5.35;100.00;99425.50;5225619;28;20039;-75
2024/02/07 08:40:54;;;;;;;3.70;1.10;;;;;;;5.45;100.00;99423.41;5228055;28;20120;-75
2024/02/07 08:43:24;;;;;;;8.80;1.30;;;;;;;5.39;100.00;99428.78;5221496;28;20066;-75
2024/02/07 08:45:54;;;;;;;3.78;0.85;;;;;;;5.64;100.00;99424.47;5228354;28;20089;-75
2024/02/07 08:48:25;;;;;;;12.13;2.15;;;;;;;5.70;100.00;99438.94;5228296;28;20032;-76
2024/02/07 08:50:55;;;;;;;10.40;1.50;;;;;;;5.70;100.00;99444.13;5226608;28;20540;-75
2024/02/07 08:53:26;;;;;;;7.57;1.40;;;;;;;5.77;100.00;99446.44;5227533;28;20032;-76
2024/02/07 08:55:57;;;;;;;7.22;1.45;;;;;;;5.67;100.00;99455.47;5224852;28;20025;-75
2024/02/07 08:58:27;;;;;;;10.50;1.42;;;;;;;5.66;100.00;99455.50;5224265;28;20070;-75
2024/02/07 09:00:57;;;;;;;8.77;1.52;;;;;;;5.76;100.00;99464.66;5205828;28;20019;-74
2024/02/07 09:03:28;;;;;;;7.05;1.30;;;;;;;5.80;100.00;99471.47;5227279;28;20071;-74
2024/02/07 09:05:58;;;;;;;5.15;1.10;;;;;;;5.81;100.00;99467.97;5228103;28;20025;-74
2024/02/07 09:08:28;;;;;;;10.02;1.42;;;;;;;6.00;100.00;99474.22;5226216;28;20417;-75
2024/02/07 09:10:58;;;;;;;7.85;1.17;;;;;;;6.07;100.00;99480.91;5227469;28;20090;-75
2024/02/07 09:13:29;;;;;;;7.55;1.42;;;;;;;6.26;100.00;99456.81;5228519;28;20124;-75
2024/02/07 09:15:59;;;;;;;10.73;1.77;;;;;;;6.33;100.00;99457.47;5207890;28;20029;-75
2024/02/07 09:18:29;;;;;;;11.85;1.38;;;;;;;6.50;100.00;99460.28;5226013;28;20102;-76
2024/02/07 09:21:00;;;;;;;9.82;1.77;;;;;;;6.38;100.00;99465.91;5228471;28;20025;-76
2024/02/07 09:23:31;;;;;;;10.98;1.60;;;;;;;6.50;100.00;99478.44;5226177;28;20037;-75
2024/02/07 09:26:04;;;;;;;8.45;1.55;;;;;;;6.51;100.00;99477.53;5228976;28;20025;-75
2024/02/07 09:28:34;;;;;;;8.70;1.58;;;;;;;6.33;100.00;99475.63;5226580;28;20043;-75
2024/02/07 09:31:04;;;;;;;8.93;1.45;;;;;;;6.45;100.00;99464.81;5226684;28;20054;-74
2024/02/07 09:33:36;;;;;;;7.93;1.70;;;;;;;6.61;100.00;99473.72;5210089;28;20162;-75
2024/02/07 09:36:06;;;;;;;8.55;1.70;;;;;;;6.59;100.00;99480.72;5224104;28;20053;-76
2024/02/07 09:38:37;;;;;;;10.43;2.17;;;;;;;6.76;100.00;99483.53;5225781;28;20040;-76
2024/02/07 09:41:13;;;;;;;11.00;1.50;;;;;;;6.65;100.00;99481.34;5225307;28;20027;-75
2024/02/07 09:43:45;;;;;;;;;;;;;;;6.74;100.00;99490.53;5226006;28;20024;-76
2024/02/07 09:46:21;;;;;;;13.25;2.22;;;;;;;6.64;100.00;99491.75;5225855;28;20357;-75
2024/02/07 09:48:54;;;;;;;13.75;2.15;;;;;;;6.43;100.00;99483.00;5227355;28;20501;-75
2024/02/07 09:51:24;;;;;;;10.93;1.90;;;;;;;6.55;100.00;99486.91;5227188;28;20041;-74
2024/02/07 09:53:55;;;;;;;10.77;2.35;;;;;;;6.60;100.00;99482.41;5226379;28;20025;-75
2024/02/07 09:56:25;;;;;;;8.98;2.00;;;;;;;6.79;100.00;99473.03;5207195;28;20401;-75
2024/02/07 09:58:57;;;;;;;9.70;2.33;;;;;;;6.93;100.00;99475.94;5224215;28;20332;-75
2024/02/07 10:01:28;;;;;;;9.05;2.03;;;;;;;7.05;100.00;99486.69;5223910;28;20024;-75
2024/02/07 10:04:00;;;;;;;10.00;2.90;;;;;;;7.17;100.00;99483.63;5225635;28;20035;-75
2024/02/07 10:06:32;;;;;;;6.50;1.80;;;;;;;7.23;100.00;99493.78;5225022;28;20273;-75
2024/02/07 10:09:05;;;;;;;10.27;2.05;;;;;;;6.72;100.00;99500.97;5223025;28;20021;-75
2024/02/07 10:11:37;;;;;;;11.50;2.30;;;;;;;6.85;100.00;99493.56;5221578;28;20080;-75
2024/02/07 10:14:10;;;;;;;12.50;2.20;;;;;;;7.11;100.00;99494.25;5224859;28;20070;-75
2024/02/07 10:16:40;;;;;;;7.70;2.03;;;;;;;7.36;100.00;99498.41;5219791;28;20033;-75
2024/02/07 10:19:11;;;;;;;15.75;2.25;;;;;;;7.20;99.02;99501.69;5204549;28;20494;-75
2024/02/07 10:21:42;;;;;;;14.40;2.70;;;;;;;7.35;98.15;99495.91;5223502;28;20116;-75
2024/02/07 10:24:12;;;;;;;9.35;2.03;;;;;;;7.37;98.29;99505.31;5225702;28;20806;-75
2024/02/07 10:26:46;;;;;;;9.15;1.50;;;;;;;7.09;95.72;99506.44;5225176;28;20025;-75
2024/02/07 10:29:18;;;;;;;10.50;2.03;;;;;;;7.30;95.10;99505.59;5208423;28;20477;-75
2024/02/07 10:31:52;;;;;;;12.57;1.90;;;;;;;7.41;95.42;99506.03;5222739;28;20036;-75
2024/02/07 10:34:23;;;;;;;13.20;1.85;;;;;;;7.50;94.59;99501.31;5223338;28;20028;-75
2024/02/07 10:36:58;;;;;;;13.38;2.67;;;;;;;7.90;93.32;99503.94;5221514;28;20398;-75
2024/02/07 10:39:28;;;;;;;11.18;2.30;;;;;;;8.20;91.94;99499.25;5221674;28;20025;-75
2024/02/07 10:42:06;;;;;;;17.67;2.38;;;;;;;8.16;90.14;99503.72;5222404;28;20027;-74
2024/02/07 10:44:37;;;;;;;13.07;1.48;;;;;;;8.04;87.25;99519.84;5223105;28;20060;-75
2024/02/07 10:47:10;;;;;;;15.57;2.30;;;;;;;7.73;86.16;99518.59;5223404;28;20048;-75
2024/02/07 10:49:40;;;;;;;15.40;2.72;;;;;;;7.99;84.52;99521.78;5205176;28;20056;-74
2024/02/07 10:52:11;;;;;;;14.98;3.97;;;;;;;7.92;85.20;99514.31;5225108;28;20055;-75
2024/02/07 10:54:41;;;;;;;13.32;1.88;;;;;;;7.91;84.72;99507.41;5203805;28;20081;-75
2024/02/07 10:57:13;;;;;;;12.93;2.00;;;;;;;7.87;83.80;99517.09;5224624;28;20024;-75
2024/02/07 10:59:45;;;;;;;13.88;2.10;;;;;;;7.51;84.17;99522.97;5224207;28;20025;-75
2024/02/07 11:02:16;;;;;;;11.38;2.40;;;;;;;7.51;83.69;99518.59;5225904;28;20039;-75
2024/02/07 11:04:46;;;;;;;19.95;2.42;;;;;;;7.59;84.39;99526.94;5224239;28;20466;-76
2024/02/07 11:07:17;;;;;;;15.80;1.80;;;;;;;7.58;82.84;99520.06;5226434;28;20051;-75
2024/02/07 11:09:47;;;;;;;18.00;2.35;;;;;;;7.42;84.36;99528.50;5227019;28;20033;-75
2024/02/07 11:12:18;;;;;;;8.75;1.70;;;;;;;7.12;83.34;99519.31;5212022;28;20028;-75
2024/02/07 11:14:50;;;;;;;14.80;2.25;;;;;;;7.20;83.04;99532.00;5205803;28;20029;-75
2024/02/07 11:17:20;;;;;;;17.27;2.30;;;;;;;7.25;83.98;99540.50;5226529;28;20027;-75
2024/02/07 11:19:51;;;;;;;13.90;2.33;;;;;;;7.38;85.08;99535.56;5230044;28;20029;-75
2024/02/07 11:22:32;;;;;;;17.52;2.47;;;;;;;7.39;83.32;99532.06;5211372;28;20032;-75
2024/02/07 11:25:03;;;;;;;14.98;3.45;;;;;;;7.42;84.58;99524.19;5229182;28;20482;-74
2024/02/07 11:27:39;;;;;;;18.80;3.15;;;;;;;7.48;84.39;99523.91;5228090;28;20478;-75
2024/02/07 11:30:10;;;;;;;18.85;2.40;;;;;;;7.64;84.46;99518.94;5210901;28;20028;-75
2024/02/07 11:32:41;;;;;;;16.20;2.08;;;;;;;7.36;82.33;99527.00;5228534;28;20401;-75
2024/02/07 11:35:11;;;;;;;14.45;2.35;;;;;;;7.43;83.13;99530.19;5212906;28;20040;-75
2024/02/07 11:37:48;;;;;;;11.82;1.83;;;;;;;7.43;81.45;99541.47;5226371;28;20051;-75
2024/02/07 11:40:23;;;;;;;8.80;1.77;;;;;;;7.47;83.50;99537.81;5208188;28;20548;-75
2024/02/07 11:43:00;;;;;;;8.90;2.10;;;;;;;7.34;81.98;99526.22;5230737;28;20020;-75
2024/02/07 11:45:35;;;;;;;19.98;3.03;;;;;;;7.38;82.05;99527.78;5226865;28;20086;-74
2024/02/07 11:48:23;;;;;;;11.95;2.28;;;;;;;7.31;83.56;99526.34;5226960;28;20112;-75
2024/02/07 11:50:55;;;;;;;16.17;2.30;;;;;;;7.31;82.60;99536.75;5228080;28;20303;-75
2024/02/07 11:53:27;;;;;;;18.50;2.50;;;;;;;7.29;82.57;99530.75;5229908;28;20028;-74
2024/02/07 11:55:57;;;;;;;15.65;2.30;;;;;;;7.15;81.66;99524.41;5228131;28;20021;-75
2024/02/07 11:58:27;;;;;;;12.52;2.63;;;;;;;7.20;81.74;99521.63;5228939;28;20082;-75
2024/02/07 12:00:58;;;;;;;18.83;2.17;;;;;;;7.18;81.87;99523.44;5228640;28;20147;-75
2024/02/07 12:03:29;;;;;;;11.02;1.98;;;;;;;7.28;82.00;99525.59;5211299;28;20060;-75
2024/02/07 12:05:59;;;;;;;19.17;1.92;;;;;;;7.30;81.07;99516.84;5194158;28;20059;-75
2024/02/07 12:08:30;;;;;;;16.15;1.90;;;;;;;7.39;82.71;99521.66;5227037;28;20028;-75
2024/02/07 12:11:00;;;;;;;11.02;1.83;;;;;;;7.47;82.17;99535.22;5227819;28;20072;-74
2024/02/07 12:13:32;;;;;;;15.38;2.45;;;;;;;7.47;83.07;99539.56;5228809;28;20566;-75
2024/02/07 12:16:04;;;;;;;21.40;2.53;;;;;;;7.58;83.45;99537.41;5227278;28;20200;-74
2024/02/07 12:18:35;;;;;;;16.83;3.90;;;;;;;7.49;82.18;99551.59;5228338;28;20124;-74
2024/02/07 12:21:05;;;;;;;15.77;3.17;;;;;;;7.29;81.74;99538.56;5229602;28;20100;-74
2024/02/07 12:23:35;;;;;;;20.17;3.65;;;;;;;7.42;82.03;99537.19;5228865;28;20033;-75
2024/02/07 12:26:05;;;;;;;25.55;6.15;;;;;;;7.50;81.44;99553.28;5211785;28;20107;-74
2024/02/07 12:28:36;;;;;;;22.70;5.70;;;;;;;7.51;81.83;99565.38;5210986;28;20120;-75
2024/02/07 12:31:06;;;;;;;13.82;2.53;;;;;;;7.28;81.36;99557.66;5210989;28;20485;-75
2024/02/07 12:33:36;;;;;;;9.82;1.85;;;;;;;7.47;81.19;99548.22;5228837;28;20103;-74
2024/02/07 12:36:07;;;;;;;12.57;2.05;;;;;;;7.49;81.58;99549.00;5229451;28;20232;-75
2024/02/07 12:38:37;;;;;;;7.05;1.73;;;;;;;7.55;80.69;99546.16;5227829;28;20033;-75
2024/02/07 12:41:08;;;;;;;17.83;2.42;;;;;;;7.71;81.63;99541.19;5227729;28;20060;-75
2024/02/07 12:43:38;;;;;;;13.68;3.05;;;;;;;7.74;81.01;99546.28;5223793;28;20540;-75
2024/02/07 12:46:09;;;;;;;12.43;2.42;;;;;;;7.63;80.99;99554.50;5223937;28;20478;-75
2024/02/07 12:48:40;;;;;;;14.05;2.10;;;;;;;7.71;81.07;99552.44;5226127;28;20033;-75
2024/02/07 12:51:11;;;;;;;14.73;2.67;;;;;;;7.76;80.97;99555.72;5227704;28;20083;-75
2024/02/07 12:53:42;;;;;;;14.48;2.22;;;;;;;7.65;81.57;99555.28;5229088;28;20120;-75
2024/02/07 12:56:21;;;;;;;14.90;2.80;;;;;;;7.54;82.28;99552.25;5207953;28;20107;-75